createdAt,value
2018-12-24T00:00:17.758Z,100033.83
2018-12-24T00:00:48.879Z,100032.14
2018-12-24T00:01:19.983Z,100030.84
2018-12-24T00:01:51.134Z,100035.59
2018-12-24T00:02:22.232Z,100034.30
2018-12-24T00:02:53.338Z,100027.37
2018-12-24T00:03:24.450Z,100030.83
2018-12-24T00:04:36.901Z,100031.66
2018-12-24T00:05:08.053Z,100034.27
2018-12-24T00:05:39.212Z,100035.14
2018-12-24T00:06:10.353Z,100040.31
2018-12-24T00:06:41.501Z,100038.56
2018-12-24T00:07:12.647Z,100032.95
2018-12-24T00:07:43.839Z,100035.98
2018-12-24T00:08:15.190Z,100035.12
2018-12-24T00:08:46.383Z,100033.37
2018-12-24T00:09:17.533Z,100042.04
2018-12-24T00:09:48.689Z,100036.86
2018-12-24T00:10:19.849Z,100042.05
2018-12-24T00:10:51.007Z,100043.38
2018-12-24T00:11:22.157Z,100039.02
2018-12-24T00:11:53.305Z,100036.42
2018-12-24T00:12:24.498Z,100039.02
2018-12-24T00:12:55.649Z,100036.87
2018-12-24T00:13:26.797Z,100037.73
2018-12-24T00:13:57.986Z,100039.02
2018-12-24T00:14:29.194Z,100039.02
2018-12-24T00:15:00.352Z,100040.33
2018-12-24T00:15:31.495Z,100041.61
2018-12-24T00:16:02.642Z,100037.72
2018-12-24T00:16:33.790Z,100040.70
2018-12-24T00:17:05.011Z,100040.29
2018-12-24T00:17:36.158Z,100037.67
2018-12-24T00:18:07.340Z,100041.11
2018-12-24T00:18:38.477Z,100036.83
2018-12-24T00:19:09.661Z,100039.41
2018-12-24T00:19:40.801Z,100043.34
2018-12-24T00:20:11.954Z,100040.34
2018-12-24T00:20:43.102Z,100043.38
2018-12-24T00:21:14.246Z,100042.14
2018-12-24T00:21:45.393Z,100038.70
2018-12-24T00:22:16.563Z,100039.61
2018-12-24T00:22:47.755Z,100035.75
2018-12-24T00:23:18.918Z,100037.52
2018-12-24T00:23:50.066Z,100040.97
2018-12-24T00:24:21.224Z,100034.52
2018-12-24T00:24:52.367Z,100035.39
2018-12-24T00:25:23.516Z,100041.00
2018-12-24T00:25:54.664Z,100037.55
2018-12-24T00:26:25.860Z,100037.16
2018-12-24T00:26:57.007Z,100036.30
2018-12-24T00:27:28.241Z,100033.69
2018-12-24T00:27:59.387Z,100034.17
2018-12-24T00:28:30.542Z,100035.48
2018-12-24T00:29:01.692Z,100029.00
2018-12-24T00:29:32.841Z,100029.44
2018-12-24T00:30:04.028Z,100027.27
2018-12-24T00:30:35.140Z,100023.82
2018-12-24T00:31:06.286Z,100032.45
2018-12-24T00:31:37.491Z,100031.16
2018-12-24T00:32:08.643Z,100028.16
2018-12-24T00:32:39.794Z,100034.65
2018-12-24T00:33:10.946Z,100032.92
2018-12-24T00:33:42.096Z,100027.32
2018-12-24T00:34:15.567Z,100033.41
2018-12-24T00:34:46.722Z,100026.48
2018-12-24T00:35:17.869Z,100026.50
2018-12-24T00:35:49.015Z,100026.52
2018-12-24T00:36:20.166Z,100022.64
2018-12-24T00:36:51.363Z,100024.36
2018-12-24T00:37:22.524Z,100029.55
2018-12-24T00:37:53.674Z,100029.11
2018-12-24T00:38:24.874Z,100025.25
2018-12-24T00:38:56.072Z,100024.38
2018-12-24T00:39:27.219Z,100026.12
2018-12-24T00:39:58.374Z,100026.55
2018-12-24T00:40:29.530Z,100021.80
2018-12-24T00:41:00.693Z,100031.30
2018-12-24T00:41:31.848Z,100026.98
2018-12-24T00:42:02.996Z,100029.14
2018-12-24T00:42:34.182Z,100027.84
2018-12-24T00:43:05.347Z,100021.34
2018-12-24T00:43:36.500Z,100025.21
2018-12-24T00:44:07.643Z,100029.12
2018-12-24T00:44:38.801Z,100025.62
2018-12-24T00:45:09.955Z,100025.62
2018-12-24T00:45:41.097Z,100024.34
2018-12-24T00:46:12.252Z,100016.97
2018-12-24T00:46:43.393Z,100022.58
2018-12-24T00:47:14.550Z,100022.13
2018-12-24T00:47:45.875Z,100019.15
2018-12-24T00:48:17.100Z,100019.13
2018-12-24T00:48:48.260Z,100016.11
2018-12-24T00:49:19.393Z,100017.41
2018-12-24T00:49:50.544Z,100013.96
2018-12-24T00:50:21.746Z,100016.54
2018-12-24T00:50:52.895Z,100016.09
2018-12-24T00:51:24.059Z,100012.22
2018-12-24T00:51:55.216Z,100011.77
2018-12-24T00:52:26.363Z,100007.03
2018-12-24T00:52:57.554Z,100007.88
2018-12-24T00:53:28.711Z,100006.19
2018-12-24T00:53:59.936Z,100002.29
2018-12-24T00:54:31.094Z,100001.86
2018-12-24T00:55:02.248Z,100005.31
2018-12-24T00:55:33.398Z,99998.38
2018-12-24T00:56:04.551Z,99997.52
2018-12-24T00:56:35.695Z,99995.81
2018-12-24T00:57:06.849Z,99994.05
2018-12-24T00:57:38.000Z,99996.24
2018-12-24T00:58:09.150Z,99996.64
2018-12-24T00:58:40.408Z,99999.25
2018-12-24T00:59:11.563Z,99995.78
2018-12-24T00:59:42.721Z,99992.75
2018-12-24T01:00:13.861Z,99992.77
2018-12-24T01:00:45.003Z,99992.34
2018-12-24T01:01:16.213Z,99984.15
2018-12-24T01:01:48.909Z,99987.16
2018-12-24T01:02:20.177Z,99987.17
2018-12-24T01:02:51.325Z,99985.43
2018-12-24T01:03:22.472Z,99977.64
2018-12-24T01:03:53.613Z,99971.16
2018-12-24T01:04:24.813Z,99977.59
2018-12-24T01:04:56.116Z,99977.59
2018-12-24T01:05:27.223Z,99975.84
2018-12-24T01:05:58.358Z,99974.56
2018-12-24T01:06:29.554Z,99980.16
2018-12-24T01:07:00.698Z,99976.28
2018-12-24T01:07:31.845Z,99977.14
2018-12-24T01:08:02.988Z,99975.84
2018-12-24T01:08:34.139Z,99973.64
2018-12-24T01:09:05.296Z,99971.88
2018-12-24T01:09:36.441Z,99965.79
2018-12-24T01:10:07.597Z,99968.79
2018-12-24T01:10:38.742Z,99963.09
2018-12-24T01:11:09.947Z,99964.33
2018-12-24T01:11:41.078Z,99962.98
2018-12-24T01:12:12.224Z,99956.90
2018-12-24T01:12:43.371Z,99959.05
2018-12-24T01:13:14.520Z,99961.16
2018-12-24T01:13:45.671Z,99957.73
2018-12-24T01:14:16.827Z,99958.98
2018-12-24T01:14:47.991Z,99953.80
2018-12-24T01:15:19.151Z,99952.92
2018-12-24T01:15:50.293Z,99955.05
2018-12-24T01:16:21.486Z,99952.02
2018-12-24T01:16:52.642Z,99958.05
2018-12-24T01:17:23.783Z,99950.72
2018-12-24T01:17:54.945Z,99951.58
2018-12-24T01:18:26.091Z,99955.00
2018-12-24T01:18:57.243Z,99950.23
2018-12-24T01:19:28.417Z,99951.51
2018-12-24T01:19:59.556Z,99946.75
2018-12-24T01:20:30.703Z,99942.86
2018-12-24T01:21:01.898Z,99943.72
2018-12-24T01:21:33.048Z,99939.86
2018-12-24T01:22:04.191Z,99949.80
2018-12-24T01:22:35.346Z,99946.83
2018-12-24T01:23:06.571Z,99943.36
2018-12-24T01:23:37.713Z,99940.72
2018-12-24T01:24:08.854Z,99932.50
2018-12-24T01:24:40.159Z,99939.82
2018-12-24T01:25:11.306Z,99938.50
2018-12-24T01:25:42.449Z,99939.36
2018-12-24T01:26:13.603Z,99938.93
2018-12-24T01:26:44.743Z,99938.07
2018-12-24T01:27:15.897Z,99936.34
2018-12-24T01:27:47.043Z,99939.81
2018-12-24T01:28:18.306Z,99941.59
2018-12-24T01:28:49.423Z,99932.52
2018-12-24T01:29:20.567Z,99936.42
2018-12-24T01:29:51.760Z,99934.28
2018-12-24T01:30:22.913Z,99929.11
2018-12-24T01:30:54.072Z,99935.59
2018-12-24T01:31:25.220Z,99931.27
2018-12-24T01:31:56.375Z,99933.91
2018-12-24T01:32:27.528Z,99932.20
2018-12-24T01:32:58.723Z,99927.91
2018-12-24T01:33:29.923Z,99930.13
2018-12-24T01:34:01.066Z,99927.10
2018-12-24T01:34:32.213Z,99926.69
2018-12-24T01:35:03.363Z,99926.72
2018-12-24T01:35:34.511Z,99927.22
2018-12-24T01:36:05.699Z,99925.91
2018-12-24T01:36:36.842Z,99931.95
2018-12-24T01:37:07.988Z,99931.55
2018-12-24T01:37:39.142Z,99926.36
2018-12-24T01:38:10.291Z,99924.20
2018-12-24T01:38:41.479Z,99926.77
2018-12-24T01:39:12.622Z,99921.17
2018-12-24T01:39:43.809Z,99920.76
2018-12-24T01:40:14.921Z,99925.97
2018-12-24T01:40:46.145Z,99916.87
2018-12-24T01:41:17.282Z,99923.78
2018-12-24T01:41:48.427Z,99924.61
2018-12-24T01:42:19.577Z,99925.03
2018-12-24T01:42:50.776Z,99917.67
2018-12-24T01:43:21.931Z,99918.94
2018-12-24T01:43:53.066Z,99915.45
2018-12-24T01:44:24.220Z,99921.52
2018-12-24T01:44:57.447Z,99923.69
2018-12-24T01:45:28.678Z,99918.02
2018-12-24T01:46:02.874Z,99915.81
2018-12-24T01:46:34.029Z,99916.26
2018-12-24T01:47:05.175Z,99912.31
2018-12-24T01:47:36.376Z,99912.24
2018-12-24T01:48:07.518Z,99910.50
2018-12-24T01:48:38.664Z,99913.05
2018-12-24T01:49:09.821Z,99905.69
2018-12-24T01:49:40.987Z,99905.21
2018-12-24T01:50:12.112Z,99898.30
2018-12-24T01:50:43.263Z,99897.36
2018-12-24T01:51:14.410Z,99899.94
2018-12-24T01:51:45.553Z,99891.21
2018-12-24T01:52:16.737Z,99893.27
2018-12-24T01:52:47.886Z,99896.66
2018-12-24T01:53:19.028Z,99889.20
2018-12-24T01:53:50.180Z,99890.88
2018-12-24T01:54:21.412Z,99891.24
2018-12-24T01:54:52.543Z,99885.16
2018-12-24T01:55:23.710Z,99888.59
2018-12-24T01:55:54.861Z,99883.38
2018-12-24T01:56:26.016Z,99886.85
2018-12-24T01:56:57.202Z,99891.17
2018-12-24T01:57:28.381Z,99883.36
2018-12-24T01:57:59.520Z,99881.63
2018-12-24T01:58:30.663Z,99882.08
2018-12-24T01:59:01.810Z,99882.95
2018-12-24T01:59:32.966Z,99875.58
2018-12-24T02:00:04.099Z,99876.89
2018-12-24T02:00:35.284Z,99872.59
2018-12-24T02:01:06.434Z,99878.20
2018-12-24T02:01:37.586Z,99871.72
2018-12-24T02:02:08.734Z,99875.61
2018-12-24T02:02:39.936Z,99869.97
2018-12-24T02:03:11.091Z,99868.19
2018-12-24T02:03:42.247Z,99868.62
2018-12-24T02:04:13.376Z,99863.87
2018-12-24T02:04:44.523Z,99859.52
2018-12-24T02:05:15.677Z,99863.84
2018-12-24T02:05:46.824Z,99859.50
2018-12-24T02:06:17.968Z,99860.83
2018-12-24T02:06:49.183Z,99858.66
2018-12-24T02:07:20.348Z,99862.10
2018-12-24T02:07:51.526Z,99863.41
2018-12-24T02:08:22.721Z,99863.84
2018-12-24T02:08:53.928Z,99850.86
2018-12-24T02:09:25.081Z,99851.72
2018-12-24T02:09:56.280Z,99848.61
2018-12-24T02:10:27.468Z,99846.38
2018-12-24T02:10:58.613Z,99841.58
2018-12-24T02:11:29.763Z,99839.83
2018-12-24T02:12:00.915Z,99829.87
2018-12-24T02:12:32.068Z,99832.04
2018-12-24T02:13:03.214Z,99827.72
2018-12-24T02:13:34.377Z,99829.89
2018-12-24T02:14:05.579Z,99827.36
2018-12-24T02:14:36.726Z,99823.03
2018-12-24T02:15:07.924Z,99823.03
2018-12-24T02:15:39.080Z,99829.11
2018-12-24T02:16:10.236Z,99825.69
2018-12-24T02:16:41.386Z,99824.84
2018-12-24T02:17:12.534Z,99821.84
2018-12-24T02:17:43.680Z,99822.72
2018-12-24T02:18:14.990Z,99826.64
2018-12-24T02:18:46.132Z,99821.05
2018-12-24T02:19:17.279Z,99821.47
2018-12-24T02:19:48.484Z,99817.61
2018-12-24T02:20:19.631Z,99811.17
2018-12-24T02:20:50.810Z,99812.92
2018-12-24T02:21:22.105Z,99809.47
2018-12-24T02:21:53.255Z,99806.93
2018-12-24T02:22:24.406Z,99808.68
2018-12-24T02:22:55.563Z,99805.27
2018-12-24T02:23:26.720Z,99802.72
2018-12-24T02:23:57.928Z,99801.45
2018-12-24T02:24:29.092Z,99797.58
2018-12-24T02:25:00.315Z,99795.00
2018-12-24T02:25:31.527Z,99794.16
2018-12-24T02:26:02.679Z,99792.86
2018-12-24T02:26:33.869Z,99793.27
2018-12-24T02:27:05.018Z,99792.81
2018-12-24T02:27:36.173Z,99789.73
2018-12-24T02:28:07.328Z,99790.16
2018-12-24T02:28:38.483Z,99797.53
2018-12-24T02:29:09.637Z,99788.44
2018-12-24T02:29:40.803Z,99795.84
2018-12-24T02:30:11.974Z,99791.94
2018-12-24T02:30:43.127Z,99796.25
2018-12-24T02:31:14.282Z,99792.84
2018-12-24T02:31:45.480Z,99788.13
2018-12-24T02:32:16.624Z,99792.50
2018-12-24T02:32:47.786Z,99782.14
2018-12-24T02:33:18.955Z,99790.80
2018-12-24T02:33:50.102Z,99784.76
2018-12-24T02:34:21.243Z,99781.31
2018-12-24T02:34:52.400Z,99785.66
2018-12-24T02:35:23.558Z,99786.98
2018-12-24T02:35:54.706Z,99784.39
2018-12-24T02:36:25.850Z,99778.80
2018-12-24T02:36:57.058Z,99779.22
2018-12-24T02:37:28.206Z,99774.45
2018-12-24T02:37:59.357Z,99778.32
2018-12-24T02:38:30.515Z,99777.47
2018-12-24T02:39:01.798Z,99778.34
2018-12-24T02:39:32.993Z,99776.20
2018-12-24T02:40:04.142Z,99778.80
2018-12-24T02:40:35.353Z,99780.12
2018-12-24T02:41:06.504Z,99769.80
2018-12-24T02:41:37.652Z,99775.03
2018-12-24T02:42:08.856Z,99776.34
2018-12-24T02:42:40.002Z,99771.16
2018-12-24T02:43:11.144Z,99770.77
2018-12-24T02:43:42.299Z,99769.45
2018-12-24T02:44:13.456Z,99773.37
2018-12-24T02:44:44.609Z,99774.28
2018-12-24T02:45:15.818Z,99767.44
2018-12-24T02:45:46.975Z,99770.08
2018-12-24T02:46:18.128Z,99761.92
2018-12-24T02:46:49.281Z,99773.16
2018-12-24T02:47:20.488Z,99771.06
2018-12-24T02:47:51.636Z,99772.84
2018-12-24T02:48:22.784Z,99766.82
2018-12-24T02:48:53.935Z,99769.88
2018-12-24T02:49:25.089Z,99773.34
2018-12-24T02:49:56.243Z,99769.48
2018-12-24T02:50:27.397Z,99769.09
2018-12-24T02:50:58.553Z,99772.58
2018-12-24T02:51:29.713Z,99766.98
2018-12-24T02:52:00.861Z,99767.45
2018-12-24T02:52:32.059Z,99769.23
2018-12-24T02:53:03.204Z,99767.52
2018-12-24T02:53:34.372Z,99763.64
2018-12-24T02:54:05.508Z,99763.64
2018-12-24T02:54:36.648Z,99766.64
2018-12-24T02:55:07.796Z,99768.39
2018-12-24T02:55:38.987Z,99763.22
2018-12-24T02:56:10.138Z,99758.44
2018-12-24T02:56:41.286Z,99762.73
2018-12-24T02:57:12.436Z,99759.75
2018-12-24T02:57:44.859Z,99763.61
2018-12-24T02:58:15.934Z,99756.28
2018-12-24T02:58:47.097Z,99756.74
2018-12-24T02:59:18.245Z,99755.88
2018-12-24T02:59:49.457Z,99756.73
2018-12-24T03:00:20.600Z,99763.64
2018-12-24T03:00:51.743Z,99757.58
2018-12-24T03:01:22.914Z,99762.78
2018-12-24T03:01:54.057Z,99758.92
2018-12-24T03:02:25.207Z,99754.20
2018-12-24T03:02:56.365Z,99749.02
2018-12-24T03:03:27.513Z,99754.22
2018-12-24T03:03:58.706Z,99749.89
2018-12-24T03:04:29.872Z,99749.92
2018-12-24T03:05:01.026Z,99748.63
2018-12-24T03:05:32.186Z,99742.59
2018-12-24T03:06:03.323Z,99746.10
2018-12-24T03:06:34.493Z,99742.22
2018-12-24T03:07:05.702Z,99735.30
2018-12-24T03:07:36.847Z,99740.48
2018-12-24T03:08:08.001Z,99736.13
2018-12-24T03:08:39.150Z,99739.14
2018-12-24T03:09:10.300Z,99737.44
2018-12-24T03:09:41.453Z,99731.36
2018-12-24T03:10:12.610Z,99730.06
2018-12-24T03:10:43.829Z,99727.87
2018-12-24T03:11:14.977Z,99727.88
2018-12-24T03:11:46.122Z,99730.02
2018-12-24T03:12:17.319Z,99727.01
2018-12-24T03:12:48.474Z,99727.83
2018-12-24T03:13:19.619Z,99727.85
2018-12-24T03:13:50.803Z,99732.61
2018-12-24T03:14:21.947Z,99729.15
2018-12-24T03:14:53.085Z,99720.95
2018-12-24T03:15:24.239Z,99719.65
2018-12-24T03:15:55.408Z,99721.38
2018-12-24T03:16:26.553Z,99720.50
2018-12-24T03:16:57.709Z,99720.95
2018-12-24T03:17:28.904Z,99721.38
2018-12-24T03:18:00.059Z,99721.81
2018-12-24T03:18:31.201Z,99718.40
2018-12-24T03:19:02.361Z,99712.74
2018-12-24T03:19:33.503Z,99715.81
2018-12-24T03:20:04.655Z,99715.81
2018-12-24T03:20:35.805Z,99715.81
2018-12-24T03:21:06.964Z,99715.76
2018-12-24T03:21:38.163Z,99710.54
2018-12-24T03:22:09.316Z,99711.81
2018-12-24T03:22:40.489Z,99712.23
2018-12-24T03:23:11.615Z,99710.94
2018-12-24T03:23:42.787Z,99717.42
2018-12-24T03:24:13.934Z,99710.91
2018-12-24T03:24:45.075Z,99709.20
2018-12-24T03:25:16.279Z,99708.72
2018-12-24T03:25:47.433Z,99700.97
2018-12-24T03:26:18.573Z,99713.91
2018-12-24T03:26:49.725Z,99709.58
2018-12-24T03:27:20.881Z,99707.02
2018-12-24T03:27:52.026Z,99707.83
2018-12-24T03:28:23.182Z,99704.82
2018-12-24T03:28:54.371Z,99700.45
2018-12-24T03:29:25.532Z,99702.16
2018-12-24T03:29:56.688Z,99697.42
2018-12-24T03:30:27.844Z,99693.48
2018-12-24T03:31:00.783Z,99699.89
2018-12-24T03:31:35.019Z,99701.63
2018-12-24T03:32:06.174Z,99702.96
2018-12-24T03:32:37.338Z,99694.73
2018-12-24T03:33:08.476Z,99705.53
2018-12-24T03:33:39.627Z,99702.03
2018-12-24T03:34:10.823Z,99698.15
2018-12-24T03:34:41.963Z,99705.48
2018-12-24T03:35:13.105Z,99702.47
2018-12-24T03:35:44.270Z,99701.63
2018-12-24T03:36:15.403Z,99702.89
2018-12-24T03:36:46.546Z,99699.42
2018-12-24T03:37:17.700Z,99696.37
2018-12-24T03:37:48.895Z,99701.54
2018-12-24T03:38:20.063Z,99694.63
2018-12-24T03:38:51.217Z,99690.34
2018-12-24T03:39:22.348Z,99691.65
2018-12-24T03:39:53.531Z,99688.59
2018-12-24T03:40:24.750Z,99686.86
2018-12-24T03:40:55.895Z,99685.55
2018-12-24T03:41:27.054Z,99684.66
2018-12-24T03:41:58.193Z,99682.02
2018-12-24T03:42:29.462Z,99682.39
2018-12-24T03:43:00.710Z,99681.91
2018-12-24T03:43:31.851Z,99680.62
2018-12-24T03:44:03.059Z,99677.12
2018-12-24T03:44:34.251Z,99673.66
2018-12-24T03:45:05.412Z,99668.02
2018-12-24T03:45:36.565Z,99665.80
2018-12-24T03:46:07.714Z,99668.37
2018-12-24T03:46:38.866Z,99666.16
2018-12-24T03:47:10.161Z,99660.50
2018-12-24T03:47:41.313Z,99666.92
2018-12-24T03:48:12.487Z,99660.02
2018-12-24T03:48:43.695Z,99661.28
2018-12-24T03:49:14.853Z,99663.01
2018-12-24T03:49:46.001Z,99660.41
2018-12-24T03:50:17.157Z,99663.88
2018-12-24T03:50:48.307Z,99660.89
2018-12-24T03:51:19.469Z,99659.65
2018-12-24T03:51:50.632Z,99660.16
2018-12-24T03:52:21.820Z,99665.37
2018-12-24T03:52:53.027Z,99665.00
2018-12-24T03:53:24.186Z,99663.78
2018-12-24T03:53:55.389Z,99669.45
2018-12-24T03:54:26.537Z,99667.36
2018-12-24T03:54:57.686Z,99670.91
2018-12-24T03:55:28.835Z,99669.20
2018-12-24T03:55:59.987Z,99671.84
2018-12-24T03:56:31.132Z,99667.11
2018-12-24T03:57:02.277Z,99671.44
2018-12-24T03:57:33.420Z,99665.88
2018-12-24T03:58:04.573Z,99668.97
2018-12-24T03:58:35.728Z,99672.02
2018-12-24T03:59:06.936Z,99674.19
2018-12-24T03:59:39.400Z,99677.27
2018-12-24T04:00:10.496Z,99680.33
2018-12-24T04:00:41.656Z,99680.46
2018-12-24T04:01:12.799Z,99677.06
2018-12-24T04:01:43.952Z,99681.82
2018-12-24T04:02:15.097Z,99685.72
2018-12-24T04:02:46.239Z,99683.61
2018-12-24T04:03:17.389Z,99685.31
2018-12-24T04:03:48.540Z,99681.92
2018-12-24T04:04:19.730Z,99690.16
2018-12-24T04:04:50.874Z,99677.67
2018-12-24T04:05:22.177Z,99677.67
2018-12-24T04:05:53.259Z,99677.20
2018-12-24T04:06:24.402Z,99669.91
2018-12-24T04:06:55.563Z,99665.59
2018-12-24T04:07:26.712Z,99662.22
2018-12-24T04:07:58.030Z,99661.78
2018-12-24T04:08:29.194Z,99662.72
2018-12-24T04:09:00.341Z,99665.72
2018-12-24T04:09:31.549Z,99666.63
2018-12-24T04:10:02.695Z,99661.07
2018-12-24T04:10:33.828Z,99666.25
2018-12-24T04:11:04.974Z,99659.77
2018-12-24T04:11:36.136Z,99667.50
2018-12-24T04:12:07.287Z,99663.55
2018-12-24T04:12:38.430Z,99659.67
2018-12-24T04:13:09.589Z,99658.78
2018-12-24T04:13:40.740Z,99664.80
2018-12-24T04:14:11.948Z,99657.02
2018-12-24T04:14:43.104Z,99662.58
2018-12-24T04:15:14.280Z,99658.27
2018-12-24T04:15:45.593Z,99666.45
2018-12-24T04:16:16.692Z,99658.31
2018-12-24T04:16:47.850Z,99663.52
2018-12-24T04:17:19.003Z,99660.91
2018-12-24T04:17:50.200Z,99670.02
2018-12-24T04:18:21.362Z,99670.44
2018-12-24T04:18:52.554Z,99673.09
2018-12-24T04:19:23.703Z,99676.55
2018-12-24T04:19:54.899Z,99674.38
2018-12-24T04:20:26.055Z,99679.56
2018-12-24T04:20:57.217Z,99677.42
2018-12-24T04:21:28.373Z,99680.87
2018-12-24T04:22:02.288Z,99674.88
2018-12-24T04:22:33.445Z,99685.64
2018-12-24T04:23:04.600Z,99680.52
2018-12-24T04:23:35.756Z,99680.52
2018-12-24T04:24:06.903Z,99680.16
2018-12-24T04:24:38.092Z,99683.62
2018-12-24T04:25:09.267Z,99680.23
2018-12-24T04:25:40.399Z,99673.36
2018-12-24T04:26:11.559Z,99676.90
2018-12-24T04:26:42.715Z,99682.12
2018-12-24T04:27:13.874Z,99674.41
2018-12-24T04:27:45.099Z,99681.73
2018-12-24T04:28:16.293Z,99675.31
2018-12-24T04:28:47.443Z,99672.31
2018-12-24T04:29:18.596Z,99678.80
2018-12-24T04:29:49.761Z,99671.91
2018-12-24T04:30:20.917Z,99671.91
2018-12-24T04:30:52.057Z,99669.33
2018-12-24T04:31:23.213Z,99666.33
2018-12-24T04:31:54.368Z,99669.33
2018-12-24T04:32:25.510Z,99671.07
2018-12-24T04:32:56.655Z,99667.63
2018-12-24T04:33:27.852Z,99667.63
2018-12-24T04:33:59.023Z,99661.61
2018-12-24T04:34:30.174Z,99659.44
2018-12-24T04:35:01.334Z,99659.47
2018-12-24T04:35:32.485Z,99654.73
2018-12-24T04:36:03.637Z,99654.34
2018-12-24T04:36:34.788Z,99656.49
2018-12-24T04:37:05.936Z,99656.95
2018-12-24T04:37:37.091Z,99652.69
2018-12-24T04:38:08.239Z,99653.98
2018-12-24T04:38:39.429Z,99642.77
2018-12-24T04:39:10.584Z,99646.25
2018-12-24T04:39:41.731Z,99644.53
2018-12-24T04:40:12.889Z,99639.36
2018-12-24T04:40:44.053Z,99638.50
2018-12-24T04:41:15.221Z,99639.36
2018-12-24T04:41:46.384Z,99638.09
2018-12-24T04:42:17.584Z,99638.93
2018-12-24T04:42:48.739Z,99634.22
2018-12-24T04:43:19.890Z,99632.96
2018-12-24T04:43:51.037Z,99636.88
2018-12-24T04:44:22.183Z,99639.45
2018-12-24T04:44:53.339Z,99641.20
2018-12-24T04:45:24.487Z,99630.44
2018-12-24T04:45:55.631Z,99633.05
2018-12-24T04:46:26.774Z,99629.62
2018-12-24T04:46:57.931Z,99633.08
2018-12-24T04:47:29.124Z,99629.23
2018-12-24T04:48:00.275Z,99630.09
2018-12-24T04:48:31.436Z,99630.98
2018-12-24T04:49:02.577Z,99630.58
2018-12-24T04:49:33.729Z,99635.30
2018-12-24T04:50:04.933Z,99631.89
2018-12-24T04:50:36.074Z,99628.00
2018-12-24T04:51:07.232Z,99623.25
2018-12-24T04:51:38.385Z,99620.66
2018-12-24T04:52:09.539Z,99622.80
2018-12-24T04:52:40.698Z,99625.80
2018-12-24T04:53:11.855Z,99618.03
2018-12-24T04:53:43.010Z,99617.61
2018-12-24T04:54:14.160Z,99617.17
2018-12-24T04:54:45.400Z,99623.17
2018-12-24T04:55:18.031Z,99618.00
2018-12-24T04:55:49.178Z,99617.16
2018-12-24T04:56:20.323Z,99615.05
2018-12-24T04:56:51.481Z,99606.88
2018-12-24T04:57:22.676Z,99609.05
2018-12-24T04:57:53.823Z,99604.32
2018-12-24T04:58:24.994Z,99607.75
2018-12-24T04:58:56.154Z,99600.88
2018-12-24T04:59:27.310Z,99598.31
2018-12-24T04:59:58.460Z,99592.31
2018-12-24T05:00:29.603Z,99590.58
2018-12-24T05:01:00.810Z,99594.92
2018-12-24T05:01:31.961Z,99588.91
2018-12-24T05:02:03.118Z,99585.49
2018-12-24T05:02:34.268Z,99584.65
2018-12-24T05:03:05.417Z,99590.69
2018-12-24T05:03:36.571Z,99587.27
2018-12-24T05:04:07.717Z,99582.53
2018-12-24T05:04:38.884Z,99581.25
2018-12-24T05:05:10.038Z,99583.84
2018-12-24T05:05:41.183Z,99581.24
2018-12-24T05:06:12.361Z,99579.54
2018-12-24T05:06:43.557Z,99575.21
2018-12-24T05:07:14.711Z,99572.63
2018-12-24T05:07:45.865Z,99567.92
2018-12-24T05:08:17.008Z,99575.22
2018-12-24T05:08:48.161Z,99573.94
2018-12-24T05:09:19.319Z,99574.35
2018-12-24T05:09:50.460Z,99575.21
2018-12-24T05:10:21.684Z,99577.80
2018-12-24T05:10:52.875Z,99578.67
2018-12-24T05:11:24.047Z,99579.13
2018-12-24T05:11:55.241Z,99578.70
2018-12-24T05:12:26.393Z,99573.10
2018-12-24T05:12:57.561Z,99581.69
2018-12-24T05:13:28.710Z,99577.39
2018-12-24T05:13:59.849Z,99574.39
2018-12-24T05:14:31.004Z,99578.27
2018-12-24T05:15:02.157Z,99570.09
2018-12-24T05:15:33.315Z,99575.27
2018-12-24T05:16:04.462Z,99571.38
2018-12-24T05:16:35.613Z,99572.25
2018-12-24T05:17:06.792Z,99571.79
2018-12-24T05:17:37.952Z,99568.78
2018-12-24T05:18:09.104Z,99570.05
2018-12-24T05:18:40.260Z,99567.48
2018-12-24T05:19:11.536Z,99570.50
2018-12-24T05:19:42.694Z,99564.05
2018-12-24T05:20:13.853Z,99562.33
2018-12-24T05:20:45.001Z,99560.20
2018-12-24T05:21:16.192Z,99561.50
2018-12-24T05:21:47.345Z,99553.80
2018-12-24T05:22:18.501Z,99558.54
2018-12-24T05:22:49.660Z,99549.95
2018-12-24T05:23:20.848Z,99555.11
2018-12-24T05:23:51.996Z,99546.94
2018-12-24T05:24:23.197Z,99543.91
2018-12-24T05:24:54.356Z,99543.91
2018-12-24T05:25:25.500Z,99543.50
2018-12-24T05:25:56.645Z,99544.78
2018-12-24T05:26:27.787Z,99541.77
2018-12-24T05:26:58.988Z,99542.61
2018-12-24T05:27:30.127Z,99538.73
2018-12-24T05:28:01.276Z,99532.72
2018-12-24T05:28:32.423Z,99537.47
2018-12-24T05:29:03.581Z,99530.58
2018-12-24T05:29:34.786Z,99527.13
2018-12-24T05:30:05.925Z,99528.44
2018-12-24T05:30:37.080Z,99528.43
2018-12-24T05:31:08.230Z,99527.14
2018-12-24T05:31:39.378Z,99528.86
2018-12-24T05:32:10.537Z,99529.30
2018-12-24T05:32:41.680Z,99532.33
2018-12-24T05:33:12.843Z,99533.60
2018-12-24T05:33:44.061Z,99530.17
2018-12-24T05:34:15.172Z,99528.87
2018-12-24T05:34:46.321Z,99526.73
2018-12-24T05:35:17.470Z,99524.56
2018-12-24T05:35:48.679Z,99522.85
2018-12-24T05:36:19.823Z,99523.28
2018-12-24T05:36:51.021Z,99523.27
2018-12-24T05:37:22.168Z,99525.84
2018-12-24T05:37:53.315Z,99525.01
2018-12-24T05:38:24.454Z,99523.70
2018-12-24T05:38:55.597Z,99528.87
2018-12-24T05:39:26.744Z,99524.57
2018-12-24T05:39:57.895Z,99523.28
2018-12-24T05:40:29.050Z,99525.43
2018-12-24T05:41:00.206Z,99528.86
2018-12-24T05:41:31.358Z,99523.70
2018-12-24T05:42:02.563Z,99526.30
2018-12-24T05:42:33.705Z,99528.86
2018-12-24T05:43:04.852Z,99533.18
2018-12-24T05:43:36.029Z,99526.73
2018-12-24T05:44:07.190Z,99534.45
2018-12-24T05:44:38.343Z,99530.59
2018-12-24T05:45:09.493Z,99533.18
2018-12-24T05:45:40.640Z,99532.31
2018-12-24T05:46:11.787Z,99526.72
2018-12-24T05:46:42.942Z,99530.59
2018-12-24T05:47:14.133Z,99537.46
2018-12-24T05:47:45.304Z,99537.91
2018-12-24T05:48:16.456Z,99547.79
2018-12-24T05:48:47.618Z,99543.92
2018-12-24T05:49:18.751Z,99169.50
2018-12-24T05:49:49.934Z,99548.27
2018-12-24T05:50:21.091Z,99549.52
2018-12-24T05:50:52.254Z,99546.94
2018-12-24T05:51:25.164Z,99549.53
2018-12-24T05:51:56.366Z,99548.66
2018-12-24T05:52:27.517Z,99553.40
2018-12-24T05:52:58.657Z,99551.25
2018-12-24T05:53:29.806Z,99553.84
2018-12-24T05:54:00.960Z,99553.38
2018-12-24T05:54:32.105Z,99551.24
2018-12-24T05:55:03.246Z,99556.84
2018-12-24T05:55:34.396Z,99558.55
2018-12-24T05:56:05.544Z,99558.98
2018-12-24T05:56:36.744Z,99556.84
2018-12-24T05:57:07.894Z,99554.70
2018-12-24T05:57:39.055Z,99555.15
2018-12-24T05:58:10.207Z,99552.16
2018-12-24T05:58:41.365Z,99553.44
2018-12-24T05:59:12.558Z,99558.16
2018-12-24T05:59:43.709Z,99556.42
2018-12-24T06:00:14.864Z,99558.13
2018-12-24T06:00:46.066Z,99567.17
2018-12-24T06:01:17.222Z,99565.02
2018-12-24T06:01:48.370Z,99565.02
2018-12-24T06:02:19.527Z,99565.89
2018-12-24T06:02:50.671Z,99565.87
2018-12-24T06:03:21.821Z,99565.01
2018-12-24T06:03:52.971Z,99563.31
2018-12-24T06:04:24.177Z,99570.16
2018-12-24T06:04:55.333Z,99567.60
2018-12-24T06:05:26.492Z,99564.58